sensor_id;sensor_type;location;lat;lon;timestamp;P1;durP1;ratioP1;P2;durP2;ratioP2
23072;SDS011;67971;51.046;3.732;2023-04-01T00:02:18;39.07;;;13.80;;
23072;SDS011;67971;51.046;3.732;2023-04-01T00:04:44;29.87;;;12.40;;
23072;SDS011;67971;51.046;3.732;2023-04-01T00:07:10;42.40;;;13.27;;
23072;SDS011;67971;51.046;3.732;2023-04-01T00:09:36;22.73;;;12.03;;
23072;SDS011;67971;51.046;3.732;2023-04-01T00:12:02;30.17;;;12.03;;
23072;SDS011;67971;51.046;3.732;2023-04-01T00:14:28;29.43;;;11.87;;
23072;SDS011;67971;51.046;3.732;2023-04-01T00:16:54;37.07;;;12.73;;
23072;SDS011;67971;51.046;3.732;2023-04-01T00:19:21;31.80;;;12.77;;
23072;SDS011;67971;51.046;3.732;2023-04-01T00:21:46;26.47;;;11.67;;
23072;SDS011;67971;51.046;3.732;2023-04-01T00:24:13;31.07;;;11.47;;
23072;SDS011;67971;51.046;3.732;2023-04-01T00:26:38;31.37;;;11.60;;
23072;SDS011;67971;51.046;3.732;2023-04-01T00:29:04;34.50;;;12.07;;
23072;SDS011;67971;51.046;3.732;2023-04-01T00:31:30;22.30;;;10.40;;
23072;SDS011;67971;51.046;3.732;2023-04-01T00:33:56;25.03;;;10.30;;
23072;SDS011;67971;51.046;3.732;2023-04-01T00:36:22;27.17;;;10.20;;
23072;SDS011;67971;51.046;3.732;2023-04-01T00:38:48;19.60;;;9.03;;
23072;SDS011;67971;51.046;3.732;2023-04-01T00:41:15;28.97;;;9.07;;
23072;SDS011;67971;51.046;3.732;2023-04-01T00:43:42;22.07;;;8.20;;
23072;SDS011;67971;51.046;3.732;2023-04-01T00:46:10;20.57;;;7.57;;
23072;SDS011;67971;51.046;3.732;2023-04-01T00:48:37;22.23;;;7.67;;
23072;SDS011;67971;51.046;3.732;2023-04-01T00:53:39;20.40;;;6.43;;
23072;SDS011;67971;51.046;3.732;2023-04-01T00:56:12;15.43;;;5.73;;
23072;SDS011;67971;51.046;3.732;2023-04-01T00:58:45;13.90;;;6.23;;
23072;SDS011;67971;51.046;3.732;2023-04-01T01:01:14;17.93;;;5.97;;
23072;SDS011;67971;51.046;3.732;2023-04-01T01:03:40;17.63;;;6.13;;
23072;SDS011;67971;51.046;3.732;2023-04-01T01:06:11;16.53;;;6.40;;
23072;SDS011;67971;51.046;3.732;2023-04-01T01:14:39;16.53;;;6.30;;
23072;SDS011;67971;51.046;3.732;2023-04-01T01:20:23;18.60;;;6.97;;
23072;SDS011;67971;51.046;3.732;2023-04-01T01:29:45;22.17;;;7.63;;
23072;SDS011;67971;51.046;3.732;2023-04-01T01:31:37;24.80;;;8.00;;
23072;SDS011;67971;51.046;3.732;2023-04-01T01:36:44;19.50;;;8.13;;
23072;SDS011;67971;51.046;3.732;2023-04-01T01:39:15;28.90;;;8.93;;
23072;SDS011;67971;51.046;3.732;2023-04-01T01:41:42;30.10;;;8.23;;
23072;SDS011;67971;51.046;3.732;2023-04-01T01:44:12;31.57;;;8.80;;
23072;SDS011;67971;51.046;3.732;2023-04-01T01:46:39;33.90;;;8.23;;
23072;SDS011;67971;51.046;3.732;2023-04-01T01:49:07;22.33;;;7.70;;
23072;SDS011;67971;51.046;3.732;2023-04-01T01:51:36;27.80;;;8.23;;
23072;SDS011;67971;51.046;3.732;2023-04-01T01:54:01;21.57;;;8.20;;
23072;SDS011;67971;51.046;3.732;2023-04-01T01:56:27;27.93;;;7.67;;
23072;SDS011;67971;51.046;3.732;2023-04-01T01:59:00;23.53;;;7.20;;
23072;SDS011;67971;51.046;3.732;2023-04-01T02:01:34;29.73;;;9.00;;
23072;SDS011;67971;51.046;3.732;2023-04-01T02:04:03;33.03;;;8.17;;
23072;SDS011;67971;51.046;3.732;2023-04-01T02:06:30;26.17;;;7.23;;
23072;SDS011;67971;51.046;3.732;2023-04-01T02:09:03;21.53;;;7.53;;
23072;SDS011;67971;51.046;3.732;2023-04-01T02:14:03;15.37;;;6.60;;
23072;SDS011;67971;51.046;3.732;2023-04-01T02:19:16;16.47;;;6.20;;
23072;SDS011;67971;51.046;3.732;2023-04-01T02:21:49;13.67;;;6.00;;
23072;SDS011;67971;51.046;3.732;2023-04-01T02:24:18;14.70;;;6.13;;
23072;SDS011;67971;51.046;3.732;2023-04-01T02:26:47;20.13;;;6.80;;
23072;SDS011;67971;51.046;3.732;2023-04-01T02:29:15;24.33;;;7.93;;
23072;SDS011;67971;51.046;3.732;2023-04-01T02:31:44;20.73;;;8.17;;
23072;SDS011;67971;51.046;3.732;2023-04-01T02:34:10;24.30;;;8.27;;
23072;SDS011;67971;51.046;3.732;2023-04-01T02:36:37;27.27;;;9.37;;
23072;SDS011;67971;51.046;3.732;2023-04-01T02:39:03;19.57;;;9.33;;
23072;SDS011;67971;51.046;3.732;2023-04-01T02:41:30;26.90;;;10.10;;
23072;SDS011;67971;51.046;3.732;2023-04-01T02:43:56;29.27;;;10.70;;
23072;SDS011;67971;51.046;3.732;2023-04-01T02:46:23;22.43;;;11.00;;
23072;SDS011;67971;51.046;3.732;2023-04-01T02:48:49;32.70;;;10.53;;
23072;SDS011;67971;51.046;3.732;2023-04-01T02:51:15;29.43;;;10.40;;
23072;SDS011;67971;51.046;3.732;2023-04-01T02:53:41;25.63;;;10.77;;
23072;SDS011;67971;51.046;3.732;2023-04-01T02:56:06;33.57;;;10.83;;
23072;SDS011;67971;51.046;3.732;2023-04-01T02:58:32;25.17;;;9.33;;
23072;SDS011;67971;51.046;3.732;2023-04-01T03:00:58;27.40;;;9.63;;
23072;SDS011;67971;51.046;3.732;2023-04-01T03:03:23;18.23;;;9.17;;
23072;SDS011;67971;51.046;3.732;2023-04-01T03:05:49;24.93;;;10.07;;
23072;SDS011;67971;51.046;3.732;2023-04-01T03:08:15;34.83;;;11.10;;
23072;SDS011;67971;51.046;3.732;2023-04-01T03:10:41;24.00;;;10.27;;
23072;SDS011;67971;51.046;3.732;2023-04-01T03:13:06;30.77;;;10.37;;
23072;SDS011;67971;51.046;3.732;2023-04-01T03:15:32;34.77;;;9.93;;
23072;SDS011;67971;51.046;3.732;2023-04-01T03:17:58;24.83;;;10.30;;
23072;SDS011;67971;51.046;3.732;2023-04-01T03:20:23;22.80;;;10.03;;
23072;SDS011;67971;51.046;3.732;2023-04-01T03:22:49;20.33;;;9.20;;
23072;SDS011;67971;51.046;3.732;2023-04-01T03:25:15;15.20;;;7.73;;
23072;SDS011;67971;51.046;3.732;2023-04-01T03:27:40;20.37;;;9.20;;
23072;SDS011;67971;51.046;3.732;2023-04-01T03:30:06;21.70;;;9.07;;
23072;SDS011;67971;51.046;3.732;2023-04-01T03:32:33;15.73;;;7.53;;
23072;SDS011;67971;51.046;3.732;2023-04-01T03:34:58;21.93;;;7.17;;
23072;SDS011;67971;51.046;3.732;2023-04-01T03:37:24;10.93;;;5.87;;
23072;SDS011;67971;51.046;3.732;2023-04-01T03:39:50;11.43;;;5.87;;
23072;SDS011;67971;51.046;3.732;2023-04-01T03:42:16;14.03;;;5.90;;
23072;SDS011;67971;51.046;3.732;2023-04-01T03:44:42;15.37;;;6.93;;
23072;SDS011;67971;51.046;3.732;2023-04-01T03:47:08;12.43;;;6.13;;
23072;SDS011;67971;51.046;3.732;2023-04-01T03:49:34;16.53;;;6.77;;
23072;SDS011;67971;51.046;3.732;2023-04-01T03:52:00;13.33;;;6.13;;
23072;SDS011;67971;51.046;3.732;2023-04-01T03:54:26;14.70;;;7.00;;
23072;SDS011;67971;51.046;3.732;2023-04-01T03:56:52;11.10;;;6.63;;
23072;SDS011;67971;51.046;3.732;2023-04-01T03:59:17;10.03;;;6.33;;
23072;SDS011;67971;51.046;3.732;2023-04-01T04:01:43;9.47;;;6.20;;
23072;SDS011;67971;51.046;3.732;2023-04-01T04:04:11;10.63;;;5.33;;
23072;SDS011;67971;51.046;3.732;2023-04-01T04:06:40;12.47;;;6.20;;
23072;SDS011;67971;51.046;3.732;2023-04-01T04:09:06;12.63;;;5.80;;
23072;SDS011;67971;51.046;3.732;2023-04-01T04:11:32;11.87;;;6.13;;
23072;SDS011;67971;51.046;3.732;2023-04-01T04:13:58;7.77;;;5.87;;
23072;SDS011;67971;51.046;3.732;2023-04-01T04:16:24;7.10;;;5.17;;
23072;SDS011;67971;51.046;3.732;2023-04-01T04:18:50;8.77;;;5.07;;
23072;SDS011;67971;51.046;3.732;2023-04-01T04:21:16;10.93;;;6.23;;
23072;SDS011;67971;51.046;3.732;2023-04-01T04:23:42;8.27;;;6.43;;
23072;SDS011;67971;51.046;3.732;2023-04-01T04:26:09;12.63;;;6.87;;
23072;SDS011;67971;51.046;3.732;2023-04-01T04:28:37;12.67;;;6.50;;
23072;SDS011;67971;51.046;3.732;2023-04-01T04:31:03;9.97;;;6.97;;
23072;SDS011;67971;51.046;3.732;2023-04-01T04:33:33;11.10;;;6.17;;
23072;SDS011;67971;51.046;3.732;2023-04-01T04:35:59;8.83;;;5.53;;
23072;SDS011;67971;51.046;3.732;2023-04-01T04:38:25;7.93;;;5.03;;
23072;SDS011;67971;51.046;3.732;2023-04-01T04:40:51;10.73;;;6.17;;
23072;SDS011;67971;51.046;3.732;2023-04-01T04:43:18;11.90;;;5.67;;
23072;SDS011;67971;51.046;3.732;2023-04-01T04:45:44;10.53;;;5.73;;
23072;SDS011;67971;51.046;3.732;2023-04-01T04:48:10;12.47;;;5.90;;
23072;SDS011;67971;51.046;3.732;2023-04-01T04:50:45;13.23;;;6.03;;
23072;SDS011;67971;51.046;3.732;2023-04-01T04:53:17;11.40;;;6.27;;
23072;SDS011;67971;51.046;3.732;2023-04-01T04:55:44;11.00;;;7.43;;
23072;SDS011;67971;51.046;3.732;2023-04-01T04:58:11;17.83;;;7.97;;
23072;SDS011;67971;51.046;3.732;2023-04-01T05:00:37;12.67;;;8.53;;
23072;SDS011;67971;51.046;3.732;2023-04-01T05:03:02;14.93;;;8.80;;
23072;SDS011;67971;51.046;3.732;2023-04-01T05:05:28;22.63;;;9.50;;
23072;SDS011;67971;51.046;3.732;2023-04-01T05:07:54;20.73;;;10.67;;
23072;SDS011;67971;51.046;3.732;2023-04-01T05:10:19;16.47;;;9.60;;
23072;SDS011;67971;51.046;3.732;2023-04-01T05:12:46;17.03;;;9.70;;
23072;SDS011;67971;51.046;3.732;2023-04-01T05:15:12;17.47;;;9.03;;
23072;SDS011;67971;51.046;3.732;2023-04-01T05:17:37;14.60;;;7.70;;
23072;SDS011;67971;51.046;3.732;2023-04-01T05:20:03;16.83;;;7.60;;
23072;SDS011;67971;51.046;3.732;2023-04-01T05:22:29;16.13;;;7.57;;
23072;SDS011;67971;51.046;3.732;2023-04-01T05:24:55;18.67;;;7.57;;
23072;SDS011;67971;51.046;3.732;2023-04-01T05:27:21;14.60;;;7.67;;
23072;SDS011;67971;51.046;3.732;2023-04-01T05:29:47;12.13;;;7.20;;
23072;SDS011;67971;51.046;3.732;2023-04-01T05:32:12;11.43;;;7.00;;
23072;SDS011;67971;51.046;3.732;2023-04-01T05:34:38;13.37;;;6.67;;
23072;SDS011;67971;51.046;3.732;2023-04-01T05:37:05;11.37;;;6.80;;
23072;SDS011;67971;51.046;3.732;2023-04-01T05:39:35;11.47;;;6.77;;
23072;SDS011;67971;51.046;3.732;2023-04-01T05:42:02;13.27;;;6.50;;
23072;SDS011;67971;51.046;3.732;2023-04-01T05:44:30;11.47;;;6.50;;
23072;SDS011;67971;51.046;3.732;2023-04-01T05:46:56;10.37;;;5.90;;
23072;SDS011;67971;51.046;3.732;2023-04-01T05:49:21;10.70;;;4.80;;
23072;SDS011;67971;51.046;3.732;2023-04-01T05:51:47;8.77;;;5.23;;
23072;SDS011;67971;51.046;3.732;2023-04-01T05:54:13;10.87;;;4.73;;
23072;SDS011;67971;51.046;3.732;2023-04-01T05:56:38;9.63;;;4.57;;
23072;SDS011;67971;51.046;3.732;2023-04-01T05:59:04;6.83;;;4.60;;
23072;SDS011;67971;51.046;3.732;2023-04-01T06:01:30;7.47;;;4.77;;
23072;SDS011;67971;51.046;3.732;2023-04-01T06:03:56;8.17;;;4.73;;
23072;SDS011;67971;51.046;3.732;2023-04-01T06:06:25;7.63;;;4.63;;
23072;SDS011;67971;51.046;3.732;2023-04-01T06:08:52;8.60;;;4.80;;
23072;SDS011;67971;51.046;3.732;2023-04-01T06:14:27;5.87;;;4.23;;
23072;SDS011;67971;51.046;3.732;2023-04-01T06:25:15;4.90;;;3.40;;
23072;SDS011;67971;51.046;3.732;2023-04-01T06:46:44;6.70;;;4.27;;
23072;SDS011;67971;51.046;3.732;2023-04-01T06:49:22;4.37;;;3.90;;
23072;SDS011;67971;51.046;3.732;2023-04-01T06:58:13;5.93;;;2.93;;
23072;SDS011;67971;51.046;3.732;2023-04-01T07:00:54;5.43;;;2.83;;
23072;SDS011;67971;51.046;3.732;2023-04-01T07:03:36;4.07;;;2.57;;
23072;SDS011;67971;51.046;3.732;2023-04-01T07:06:12;3.63;;;2.20;;
23072;SDS011;67971;51.046;3.732;2023-04-01T07:09:02;8.03;;;2.47;;
23072;SDS011;67971;51.046;3.732;2023-04-01T07:11:32;2.47;;;2.17;;
23072;SDS011;67971;51.046;3.732;2023-04-01T07:17:48;3.03;;;2.60;;
23072;SDS011;67971;51.046;3.732;2023-04-01T07:22:42;3.90;;;2.37;;
23072;SDS011;67971;51.046;3.732;2023-04-01T07:25:12;3.33;;;2.20;;
23072;SDS011;67971;51.046;3.732;2023-04-01T07:27:43;4.47;;;2.10;;
23072;SDS011;67971;51.046;3.732;2023-04-01T07:30:28;5.70;;;2.57;;
23072;SDS011;67971;51.046;3.732;2023-04-01T07:35:54;3.37;;;2.23;;
23072;SDS011;67971;51.046;3.732;2023-04-01T07:44:08;6.27;;;2.17;;
23072;SDS011;67971;51.046;3.732;2023-04-01T07:46:56;2.47;;;2.00;;
23072;SDS011;67971;51.046;3.732;2023-04-01T07:49:28;3.07;;;2.17;;
23072;SDS011;67971;51.046;3.732;2023-04-01T07:57:20;7.03;;;2.70;;
23072;SDS011;67971;51.046;3.732;2023-04-01T08:02:41;5.57;;;2.97;;
23072;SDS011;67971;51.046;3.732;2023-04-01T08:05:30;4.60;;;2.87;;
23072;SDS011;67971;51.046;3.732;2023-04-01T08:11:01;10.03;;;3.77;;
23072;SDS011;67971;51.046;3.732;2023-04-01T08:21:54;6.10;;;3.13;;
23072;SDS011;67971;51.046;3.732;2023-04-01T08:24:33;5.13;;;3.07;;
23072;SDS011;67971;51.046;3.732;2023-04-01T08:27:13;8.33;;;3.77;;
23072;SDS011;67971;51.046;3.732;2023-04-01T08:30:23;6.80;;;3.63;;
23072;SDS011;67971;51.046;3.732;2023-04-01T08:33:17;7.40;;;4.37;;
23072;SDS011;67971;51.046;3.732;2023-04-01T08:36:12;11.17;;;4.33;;
23072;SDS011;67971;51.046;3.732;2023-04-01T08:38:57;11.73;;;4.57;;
23072;SDS011;67971;51.046;3.732;2023-04-01T09:03:48;9.27;;;3.80;;
23072;SDS011;67971;51.046;3.732;2023-04-01T09:06:40;10.40;;;3.07;;
23072;SDS011;67971;51.046;3.732;2023-04-01T09:09:39;10.80;;;3.43;;
23072;SDS011;67971;51.046;3.732;2023-04-01T09:28:38;2.40;;;1.40;;
23072;SDS011;67971;51.046;3.732;2023-04-01T09:36:43;2.30;;;1.70;;
23072;SDS011;67971;51.046;3.732;2023-04-01T09:48:46;4.97;;;1.77;;
23072;SDS011;67971;51.046;3.732;2023-04-01T10:00:15;4.07;;;1.47;;
23072;SDS011;67971;51.046;3.732;2023-04-01T10:05:48;3.93;;;1.60;;
23072;SDS011;67971;51.046;3.732;2023-04-01T10:51:01;1.70;;;0.80;;
23072;SDS011;67971;51.046;3.732;2023-04-01T10:59:06;1.73;;;1.10;;
23072;SDS011;67971;51.046;3.732;2023-04-01T11:02:19;2.00;;;1.10;;
23072;SDS011;67971;51.046;3.732;2023-04-01T11:45:36;2.90;;;2.30;;
23072;SDS011;67971;51.046;3.732;2023-04-01T11:58:58;7.47;;;2.93;;
23072;SDS011;67971;51.046;3.732;2023-04-01T12:01:48;5.93;;;2.83;;
23072;SDS011;67971;51.046;3.732;2023-04-01T12:04:33;6.73;;;2.50;;
23072;SDS011;67971;51.046;3.732;2023-04-01T12:10:17;5.20;;;3.03;;
23072;SDS011;67971;51.046;3.732;2023-04-01T12:13:11;9.30;;;2.83;;
23072;SDS011;67971;51.046;3.732;2023-04-01T12:15:50;5.23;;;2.40;;
23072;SDS011;67971;51.046;3.732;2023-04-01T12:18:35;6.33;;;3.07;;
23072;SDS011;67971;51.046;3.732;2023-04-01T12:29:48;8.37;;;2.07;;
23072;SDS011;67971;51.046;3.732;2023-04-01T12:52:02;2.40;;;1.50;;
23072;SDS011;67971;51.046;3.732;2023-04-01T13:20:18;6.10;;;1.70;;
23072;SDS011;67971;51.046;3.732;2023-04-01T13:25:46;4.97;;;1.83;;
23072;SDS011;67971;51.046;3.732;2023-04-01T13:28:41;7.73;;;2.10;;
23072;SDS011;67971;51.046;3.732;2023-04-01T13:32:14;4.23;;;1.83;;
23072;SDS011;67971;51.046;3.732;2023-04-01T13:40:00;4.30;;;2.03;;
23072;SDS011;67971;51.046;3.732;2023-04-01T13:42:57;3.67;;;1.70;;
23072;SDS011;67971;51.046;3.732;2023-04-01T13:45:49;2.90;;;1.63;;
23072;SDS011;67971;51.046;3.732;2023-04-01T13:56:37;3.50;;;1.60;;
23072;SDS011;67971;51.046;3.732;2023-04-01T13:59:25;4.90;;;1.50;;
23072;SDS011;67971;51.046;3.732;2023-04-01T14:05:01;6.47;;;1.47;;
23072;SDS011;67971;51.046;3.732;2023-04-01T14:13:23;1.97;;;1.00;;
23072;SDS011;67971;51.046;3.732;2023-04-01T14:18:30;2.63;;;1.20;;
23072;SDS011;67971;51.046;3.732;2023-04-01T14:31:59;3.37;;;1.20;;
23072;SDS011;67971;51.046;3.732;2023-04-01T14:38:16;4.93;;;1.43;;
23072;SDS011;67971;51.046;3.732;2023-04-01T14:48:57;2.00;;;1.00;;
23072;SDS011;67971;51.046;3.732;2023-04-01T14:51:36;3.63;;;1.47;;
23072;SDS011;67971;51.046;3.732;2023-04-01T14:59:14;1.47;;;1.10;;
23072;SDS011;67971;51.046;3.732;2023-04-01T15:01:47;4.63;;;1.40;;
23072;SDS011;67971;51.046;3.732;2023-04-01T15:13:13;2.20;;;1.23;;
23072;SDS011;67971;51.046;3.732;2023-04-01T15:21:43;4.23;;;1.30;;
23072;SDS011;67971;51.046;3.732;2023-04-01T15:37:55;3.57;;;1.70;;
23072;SDS011;67971;51.046;3.732;2023-04-01T15:40:32;5.00;;;1.60;;
23072;SDS011;67971;51.046;3.732;2023-04-01T15:52:05;8.87;;;2.20;;
23072;SDS011;67971;51.046;3.732;2023-04-01T15:55:00;6.23;;;1.77;;
23072;SDS011;67971;51.046;3.732;2023-04-01T16:22:20;6.13;;;1.60;;
23072;SDS011;67971;51.046;3.732;2023-04-01T16:34:02;3.93;;;2.37;;
23072;SDS011;67971;51.046;3.732;2023-04-01T16:39:29;2.07;;;1.80;;
23072;SDS011;67971;51.046;3.732;2023-04-01T16:47:34;6.40;;;2.90;;
23072;SDS011;67971;51.046;3.732;2023-04-01T16:53:00;5.90;;;2.67;;
23072;SDS011;67971;51.046;3.732;2023-04-01T16:55:49;7.37;;;2.90;;
23072;SDS011;67971;51.046;3.732;2023-04-01T17:01:14;9.67;;;4.23;;
23072;SDS011;67971;51.046;3.732;2023-04-01T17:03:49;9.27;;;3.87;;
23072;SDS011;67971;51.046;3.732;2023-04-01T17:06:25;9.43;;;4.60;;
23072;SDS011;67971;51.046;3.732;2023-04-01T17:09:02;6.20;;;4.07;;
23072;SDS011;67971;51.046;3.732;2023-04-01T17:14:54;6.73;;;3.50;;
23072;SDS011;67971;51.046;3.732;2023-04-01T17:20:35;10.33;;;5.03;;
23072;SDS011;67971;51.046;3.732;2023-04-01T17:26:13;8.40;;;6.00;;
23072;SDS011;67971;51.046;3.732;2023-04-01T17:28:50;9.63;;;5.87;;
23072;SDS011;67971;51.046;3.732;2023-04-01T17:34:13;7.77;;;5.40;;
23072;SDS011;67971;51.046;3.732;2023-04-01T17:42:52;13.90;;;7.20;;
23072;SDS011;67971;51.046;3.732;2023-04-01T17:45:21;14.37;;;6.37;;
23072;SDS011;67971;51.046;3.732;2023-04-01T17:59:09;19.97;;;8.63;;
23072;SDS011;67971;51.046;3.732;2023-04-01T18:02:17;25.30;;;10.10;;
23072;SDS011;67971;51.046;3.732;2023-04-01T18:10:17;16.87;;;7.43;;
23072;SDS011;67971;51.046;3.732;2023-04-01T18:12:59;15.30;;;7.80;;
23072;SDS011;67971;51.046;3.732;2023-04-01T18:21:04;25.93;;;10.93;;
23072;SDS011;67971;51.046;3.732;2023-04-01T18:23:47;28.57;;;10.20;;
23072;SDS011;67971;51.046;3.732;2023-04-01T18:26:36;27.00;;;12.23;;
23072;SDS011;67971;51.046;3.732;2023-04-01T18:29:12;27.53;;;12.37;;
23072;SDS011;67971;51.046;3.732;2023-04-01T18:31:44;31.00;;;14.20;;
23072;SDS011;67971;51.046;3.732;2023-04-01T18:36:44;32.83;;;14.67;;
23072;SDS011;67971;51.046;3.732;2023-04-01T18:39:33;43.43;;;16.17;;
23072;SDS011;67971;51.046;3.732;2023-04-01T18:42:24;38.67;;;16.97;;
23072;SDS011;67971;51.046;3.732;2023-04-01T18:47:44;34.23;;;16.73;;
23072;SDS011;67971;51.046;3.732;2023-04-01T18:56:05;44.07;;;17.83;;
23072;SDS011;67971;51.046;3.732;2023-04-01T19:10:15;33.60;;;13.37;;
23072;SDS011;67971;51.046;3.732;2023-04-01T19:21:10;42.63;;;16.30;;
23072;SDS011;67971;51.046;3.732;2023-04-01T19:26:39;42.40;;;13.83;;
23072;SDS011;67971;51.046;3.732;2023-04-01T19:48:51;31.63;;;11.53;;
23072;SDS011;67971;51.046;3.732;2023-04-01T20:07:54;32.20;;;15.13;;
23072;SDS011;67971;51.046;3.732;2023-04-01T20:10:46;49.07;;;15.40;;
23072;SDS011;67971;51.046;3.732;2023-04-01T20:13:36;40.93;;;15.07;;
23072;SDS011;67971;51.046;3.732;2023-04-01T20:16:08;42.03;;;15.27;;
23072;SDS011;67971;51.046;3.732;2023-04-01T20:23:43;44.90;;;15.37;;
23072;SDS011;67971;51.046;3.732;2023-04-01T20:26:32;33.70;;;15.77;;
23072;SDS011;67971;51.046;3.732;2023-04-01T20:29:27;38.17;;;17.20;;
23072;SDS011;67971;51.046;3.732;2023-04-01T20:34:46;44.77;;;16.90;;
23072;SDS011;67971;51.046;3.732;2023-04-01T20:37:39;48.80;;;18.40;;
23072;SDS011;67971;51.046;3.732;2023-04-01T20:45:55;52.63;;;18.37;;
23072;SDS011;67971;51.046;3.732;2023-04-01T20:48:33;54.90;;;18.47;;
23072;SDS011;67971;51.046;3.732;2023-04-01T20:51:24;58.70;;;20.57;;
23072;SDS011;67971;51.046;3.732;2023-04-01T21:05:04;58.47;;;21.77;;
23072;SDS011;67971;51.046;3.732;2023-04-01T21:10:43;54.53;;;22.83;;
23072;SDS011;67971;51.046;3.732;2023-04-01T21:21:06;53.03;;;20.03;;
23072;SDS011;67971;51.046;3.732;2023-04-01T21:41:04;55.43;;;20.67;;
23072;SDS011;67971;51.046;3.732;2023-04-01T21:43:43;53.97;;;19.27;;
23072;SDS011;67971;51.046;3.732;2023-04-01T21:46:31;58.77;;;20.87;;
23072;SDS011;67971;51.046;3.732;2023-04-01T21:49:08;65.17;;;21.40;;
23072;SDS011;67971;51.046;3.732;2023-04-01T21:54:44;52.47;;;21.23;;
23072;SDS011;67971;51.046;3.732;2023-04-01T22:00:17;49.93;;;19.23;;
23072;SDS011;67971;51.046;3.732;2023-04-01T22:05:36;66.50;;;20.33;;
23072;SDS011;67971;51.046;3.732;2023-04-01T22:14:03;63.20;;;22.73;;
23072;SDS011;67971;51.046;3.732;2023-04-01T22:21:44;57.13;;;21.40;;
23072;SDS011;67971;51.046;3.732;2023-04-01T22:32:28;56.33;;;23.10;;
23072;SDS011;67971;51.046;3.732;2023-04-01T22:40:42;54.30;;;21.73;;
23072;SDS011;67971;51.046;3.732;2023-04-01T22:43:20;52.23;;;22.83;;
23072;SDS011;67971;51.046;3.732;2023-04-01T22:46:09;46.30;;;22.37;;
23072;SDS011;67971;51.046;3.732;2023-04-01T22:49:07;52.87;;;23.20;;
23072;SDS011;67971;51.046;3.732;2023-04-01T22:54:21;58.83;;;24.37;;
23072;SDS011;67971;51.046;3.732;2023-04-01T22:59:39;53.93;;;23.40;;
23072;SDS011;67971;51.046;3.732;2023-04-01T23:02:27;50.53;;;24.20;;
23072;SDS011;67971;51.046;3.732;2023-04-01T23:04:57;47.70;;;22.77;;
23072;SDS011;67971;51.046;3.732;2023-04-01T23:10:30;52.63;;;24.87;;
23072;SDS011;67971;51.046;3.732;2023-04-01T23:13:18;50.17;;;26.10;;
23072;SDS011;67971;51.046;3.732;2023-04-01T23:15:50;57.83;;;26.97;;
23072;SDS011;67971;51.046;3.732;2023-04-01T23:18:33;49.50;;;27.67;;
23072;SDS011;67971;51.046;3.732;2023-04-01T23:24:19;57.77;;;28.30;;
23072;SDS011;67971;51.046;3.732;2023-04-01T23:26:55;53.47;;;27.97;;
23072;SDS011;67971;51.046;3.732;2023-04-01T23:29:25;54.50;;;29.97;;
23072;SDS011;67971;51.046;3.732;2023-04-01T23:31:56;69.20;;;33.83;;
23072;SDS011;67971;51.046;3.732;2023-04-01T23:34:30;56.87;;;33.43;;
23072;SDS011;67971;51.046;3.732;2023-04-01T23:37:02;67.43;;;34.23;;
23072;SDS011;67971;51.046;3.732;2023-04-01T23:39:39;61.43;;;34.67;;
23072;SDS011;67971;51.046;3.732;2023-04-01T23:42:22;64.50;;;34.93;;
23072;SDS011;67971;51.046;3.732;2023-04-01T23:45:24;60.80;;;36.20;;
23072;SDS011;67971;51.046;3.732;2023-04-01T23:47:49;64.83;;;36.20;;
23072;SDS011;67971;51.046;3.732;2023-04-01T23:50:18;60.03;;;35.23;;
23072;SDS011;67971;51.046;3.732;2023-04-01T23:55:34;60.67;;;36.07;;
